»·PEaware :: N1JG KBLH-KSNA

N1JG :: KBLH-KSNA

FLIGHT INFORMATION

Flight Status: Arrived
Operator: Privately registered:
United States
More flights under this callsign
Pilot: Josh G. (4619)
Aircraft: Unknown
(TBM9)
More flights by this aircraft type
Origin: KBLH Blythe
United States
Destination: KSNA John Wayne-Orange Co
United States
More flights between these airports :: More routes between these airports
Route: BLH PSP KAYOH7
File this flight plan on PilotEdge
Remarks:
Altitude:
(Current/Filed)
24,000ft
Speed:
(Current/Filed)
270kts
Departed: 22-Feb-18 11:41 PM
Arrived: 23-Feb-18 12:42 AM
Distance/Time
Traveled:
157nm/1:01
Distance/Time
To Go:
Arrived

Flight Plot

Page will automatically refresh every two minutes.

Flight plan parsing failed; only flown route is shown


Map Options




Map Legend


Flown Route
Filed Route
Departure Airport
Arrival Airport
Navaid (VOR, NDB)
Fix

Horizontal Profiles

Position Reports

Time Latitude Longitude Heading Altitude Ground
Speed
22-Feb-18 23:37 33.614289 -114.713203 356 394ft 0kts
22-Feb-18 23:38 33.614289 -114.713203 356 394ft 0kts
22-Feb-18 23:39 33.614289 -114.713203 356 394ft 0kts
22-Feb-18 23:40 33.614289 -114.713203 356 394ft 0kts
22-Feb-18 23:41 33.614289 -114.713203 356 394ft 0kts
22-Feb-18 23:42 33.614289 -114.713203 356 393ft 0kts
22-Feb-18 23:43 33.615087 -114.712128 60 393ft 8kts
22-Feb-18 23:44 33.615896 -114.706201 347 394ft 0kts
22-Feb-18 23:45 33.615896 -114.706201 347 394ft 0kts
22-Feb-18 23:46 33.615896 -114.706201 347 394ft 0kts
22-Feb-18 23:47 33.616100 -114.706295 334 394ft 4kts
22-Feb-18 23:48 33.615969 -114.721796 261 511ft 116kts
22-Feb-18 23:49 33.609338 -114.772395 261 1384ft 174kts
22-Feb-18 23:50 33.604911 -114.830357 270 2686ft 179kts
22-Feb-18 23:51 33.607454 -114.890111 270 3975ft 173kts
22-Feb-18 23:52 33.613243 -114.948463 277 4919ft 178kts
22-Feb-18 23:53 33.629268 -115.004156 298 6168ft 179kts
22-Feb-18 23:54 33.652355 -115.056881 290 7418ft 177kts
22-Feb-18 23:55 33.663426 -115.115892 296 8495ft 173kts
22-Feb-18 23:56 33.683755 -115.165924 272 9383ft 177kts
22-Feb-18 23:57 33.681931 -115.217982 272 10231ft 181kts
22-Feb-18 23:58 33.684211 -115.270546 284 11061ft 177kts
22-Feb-18 23:59 33.692285 -115.320748 284 11792ft 177kts
23-Feb-18 00:00 33.700621 -115.372436 284 12470ft 177kts
23-Feb-18 00:01 33.709683 -115.428519 284 13175ft 180kts
23-Feb-18 00:02 33.718494 -115.482916 284 14308ft 178kts
23-Feb-18 00:03 33.727154 -115.535529 281 15211ft 181kts
23-Feb-18 00:04 33.735615 -115.588818 284 16254ft 178kts
23-Feb-18 00:05 33.744030 -115.640943 284 17453ft 165kts
23-Feb-18 00:06 33.750033 -115.678339 284 19026ft 147kts
23-Feb-18 00:07 33.757026 -115.721675 284 20236ft 152kts
23-Feb-18 00:08 33.764560 -115.768376 284 21521ft 155kts
23-Feb-18 00:09 33.771526 -115.811659 284 22592ft 157kts
23-Feb-18 00:10 33.779135 -115.858028 280 23464ft 167kts
23-Feb-18 00:11 33.786683 -115.906004 283 24170ft 185kts
23-Feb-18 00:12 33.795482 -115.960571 283 24166ft 214kts
23-Feb-18 00:13 33.804675 -116.017774 283 24176ft 226kts
23-Feb-18 00:14 33.815166 -116.083418 283 24182ft 233kts
23-Feb-18 00:15 33.826832 -116.156695 283 24179ft 235kts
23-Feb-18 00:16 33.838736 -116.231733 283 24178ft 237kts
23-Feb-18 00:17 33.850298 -116.303931 281 24173ft 238kts
23-Feb-18 00:18 33.860328 -116.368572 282 24176ft 238kts
23-Feb-18 00:19 33.869968 -116.438556 276 24175ft 239kts
23-Feb-18 00:20 33.873269 -116.506239 277 24173ft 238kts
23-Feb-18 00:21 33.876800 -116.579542 277 24172ft 238kts
23-Feb-18 00:22 33.880150 -116.649836 276 24171ft 238kts
23-Feb-18 00:23 33.882968 -116.710122 276 24186ft 239kts
23-Feb-18 00:24 33.886131 -116.778472 276 24184ft 241kts
23-Feb-18 00:25 33.889013 -116.839759 273 24140ft 243kts
23-Feb-18 00:26 33.869776 -116.904662 256 24057ft 253kts
23-Feb-18 00:27 33.845535 -116.977258 256 23603ft 248kts
23-Feb-18 00:28 33.821768 -117.048270 255 20083ft 256kts
23-Feb-18 00:29 33.797069 -117.121524 255 16844ft 245kts
23-Feb-18 00:30 33.776702 -117.194368 274 13483ft 232kts
23-Feb-18 00:31 33.777411 -117.267949 273 10404ft 229kts
23-Feb-18 00:32 33.783866 -117.339834 293 8029ft 201kts
23-Feb-18 00:33 33.803932 -117.395022 292 6613ft 186kts
23-Feb-18 00:34 33.823559 -117.448890 292 5214ft 170kts
23-Feb-18 00:35 33.839889 -117.493648 292 5285ft 142kts
23-Feb-18 00:36 33.855723 -117.537039 292 5305ft 164kts
23-Feb-18 00:37 33.870220 -117.576685 292 5296ft 172kts
23-Feb-18 00:38 33.879592 -117.602303 292 5294ft 174kts
23-Feb-18 00:39 33.892418 -117.637368 292 5317ft 175kts
23-Feb-18 00:40 33.906584 -117.676072 291 5325ft 176kts
23-Feb-18 00:41 33.927067 -117.734659 288 3630ft 206kts
23-Feb-18 00:42 33.894251 -117.759892 178 3565ft 165kts
23-Feb-18 00:43 33.851229 -117.756990 208 3577ft 158kts
23-Feb-18 00:44 33.807629 -117.784601 208 2930ft 201kts
23-Feb-18 00:45 33.759123 -117.815291 211 2044ft 179kts
23-Feb-18 00:46 33.726759 -117.835137 211 1748ft 102kts
23-Feb-18 00:47 33.702966 -117.850957 216 737ft 96kts
23-Feb-18 00:48 33.680518 -117.865733 214 66ft 79kts
23-Feb-18 00:49 33.674478 -117.870977 350 59ft 5kts
23-Feb-18 00:50 33.677015 -117.869502 27 59ft 14kts
23-Feb-18 00:51 33.678121 -117.868570 50 59ft 0kts
23-Feb-18 00:52 33.678121 -117.868570 50 59ft 0kts
23-Feb-18 00:53 33.678122 -117.868570 50 59ft 0kts
23-Feb-18 00:54 33.678122 -117.868570 50 59ft 0kts
23-Feb-18 00:55 33.678122 -117.868570 50 59ft 0kts
23-Feb-18 00:56 33.678122 -117.868570 50 59ft 0kts
23-Feb-18 00:57 33.678122 -117.868570 50 59ft 0kts
23-Feb-18 00:58 33.678122 -117.868570 50 59ft 0kts
23-Feb-18 00:59 33.678122 -117.868570 50 59ft 0kts
23-Feb-18 01:00 33.678122 -117.868570 50 59ft 0kts
23-Feb-18 01:01 33.678122 -117.868570 50 59ft 0kts
23-Feb-18 01:02 33.678122 -117.868570 50 59ft 0kts
23-Feb-18 01:03 33.678122 -117.868570 50 59ft 0kts

Navigation Log

Ident Type
Flight plan parsing failed, navigation log unavailable